Time;durP1;ratioP1;P1;durP2;ratioP2;P2;SDS_P1;SDS_P2;PMS_P1;PMS_P2;Temp;Humidity;BMP_temperature;BMP_pressure;BME280_temperature;BME280_humidity;BME280_pressure;Samples;Min_cycle;Max_cycle;Signal;HPM_P1;HPM_P2
2021/12/11 00:01:56;;;;;;;33.97;20.73;;;;;;;1.02;87.26;100439.63;4932379;29;20020;-91
2021/12/11 00:04:31;;;;;;;29.03;18.00;;;;;;;1.02;86.82;100447.31;4927805;29;20496;-90
2021/12/11 00:06:58;;;;;;;32.30;18.90;;;;;;;1.04;87.00;100454.16;4907738;29;20075;-91
2021/12/11 00:09:27;;;;;;;33.23;19.43;;;;;;;1.04;86.99;100461.00;4925074;29;20039;-90
2021/12/11 00:12:22;;;;;;;35.37;20.53;;;;;;;1.08;87.43;100474.66;4926732;29;20039;-91
2021/12/11 00:14:53;;;;;;;35.13;20.27;;;;;;;1.01;87.35;100479.78;4925567;29;20110;-91
2021/12/11 00:17:27;;;;;;;33.00;20.20;;;;;;;1.02;86.98;100485.72;4920349;29;20059;-92
2021/12/11 00:19:52;;;;;;;34.83;21.20;;;;;;;1.00;87.44;100478.06;4925233;29;20036;-91
2021/12/11 00:22:22;;;;;;;37.73;22.07;;;;;;;1.00;87.76;100485.72;4927119;29;20035;-90
2021/12/11 00:24:47;;;;;;;34.20;21.77;;;;;;;1.01;87.58;100500.25;4921424;29;20063;-91
2021/12/11 00:27:28;;;;;;;37.60;21.83;;;;;;;1.00;87.90;100495.97;4919833;29;20473;-91
2021/12/11 00:29:54;;;;;;;37.03;21.53;;;;;;;1.03;87.82;100508.78;4912425;29;20219;-91
2021/12/11 00:32:25;;;;;;;35.73;21.77;;;;;;;0.98;87.59;100514.72;4927075;29;20455;-92
2021/12/11 00:34:52;;;;;;;;;;;;;;;1.11;87.36;100521.66;4922682;29;20075;-91
2021/12/11 00:37:23;;;;;;;35.23;19.53;;;;;;;0.97;86.89;100518.13;4921635;29;19998;-91
2021/12/11 00:39:52;;;;;;;33.47;20.53;;;;;;;0.97;86.65;100524.13;4928467;29;20179;-90
2021/12/11 00:42:20;;;;;;;36.80;20.43;;;;;;;0.97;86.72;100543.75;4917020;29;20036;-92
2021/12/11 00:44:54;;;;;;;36.63;20.17;;;;;;;0.94;86.90;100536.91;4927390;29;20040;-91
2021/12/11 00:47:24;;;;;;;33.07;20.80;;;;;;;0.89;86.78;100536.00;4924812;29;20036;-90
2021/12/11 00:50:06;;;;;;;36.13;20.80;;;;;;;0.90;87.15;100553.06;4917715;29;20035;-91
2021/12/11 00:52:36;;;;;;;35.73;21.83;;;;;;;0.88;87.23;100549.63;4935319;29;20477;-91
2021/12/11 00:55:08;;;;;;;36.10;21.17;;;;;;;0.89;87.00;100556.47;4925761;29;20020;-90
2021/12/11 00:57:34;;;;;;;;;;;;;;;0.99;86.90;100565.13;4923735;29;20040;-90
2021/12/11 01:00:13;;;;;;;34.63;19.63;;;;;;;0.89;86.76;100566.72;4921481;29;20034;-91
2021/12/11 01:02:39;;;;;;;34.70;21.03;;;;;;;0.85;86.92;100575.25;4922921;29;20032;-90
2021/12/11 01:05:07;;;;;;;34.80;20.50;;;;;;;0.82;86.52;100577.78;4928920;29;20486;-89
2021/12/11 01:07:34;;;;;;;38.57;21.20;;;;;;;0.82;86.81;100590.56;4930045;29;20042;-92
2021/12/11 01:10:06;;;;;;;38.80;22.60;;;;;;;0.82;86.71;100590.56;4928264;29;20067;-89
2021/12/11 01:12:44;;;;;;;39.00;23.83;;;;;;;0.79;87.21;100585.41;4930901;29;20027;-90
2021/12/11 01:15:13;;;;;;;37.40;23.30;;;;;;;0.79;87.22;100590.53;4909847;29;20039;-90
2021/12/11 01:17:49;;;;;;;40.27;23.20;;;;;;;0.76;87.62;100601.63;4924985;29;20039;-90
2021/12/11 01:20:44;;;;;;;39.17;23.87;;;;;;;0.79;87.76;100611.03;4902501;29;20082;-91
2021/12/11 01:23:16;;;;;;;42.73;24.40;;;;;;;0.80;87.44;100611.03;4927868;29;20116;-90
2021/12/11 01:25:42;;;;;;;33.13;21.30;;;;;;;0.75;86.83;100618.66;4926906;29;20055;-90
2021/12/11 01:28:08;;;;;;;38.77;21.63;;;;;;;0.72;86.42;100625.47;4933166;29;20058;-91
2021/12/11 01:30:38;;;;;;;32.50;20.90;;;;;;;0.71;86.04;100628.88;4932229;29;20536;-91
2021/12/11 01:33:06;;;;;;;32.93;21.27;;;;;;;0.68;85.64;100641.63;4925644;29;20244;-91
2021/12/11 01:35:32;;;;;;;32.50;20.97;;;;;;;0.60;85.27;100637.25;4927583;29;20063;-90
2021/12/11 01:38:09;;;;;;;30.90;19.33;;;;;;;0.59;85.44;100648.38;4921516;29;20063;-91
2021/12/11 01:40:35;;;;;;;29.40;19.30;;;;;;;0.53;85.53;100652.53;4919995;29;20082;-90
2021/12/11 01:43:05;;;;;;;27.60;18.97;;;;;;;0.52;85.00;100661.94;4921114;29;20100;-91
2021/12/11 01:45:31;;;;;;;30.20;20.63;;;;;;;0.51;85.04;100661.91;4916679;29;20028;-90
2021/12/11 01:47:56;;;;;;;42.60;24.20;;;;;;;0.47;84.19;100666.13;4919077;29;20083;-90
2021/12/11 01:50:33;;;;;;;60.90;21.67;;;;;;;0.47;85.61;100665.28;4928916;29;20426;-90
2021/12/11 01:53:04;;;;;;;175.43;21.57;;;;;;;0.41;85.51;100676.28;4933134;29;20122;-91
2021/12/11 01:55:39;;;;;;;47.78;20.58;;;;;;;0.44;85.52;100679.75;4928903;29;20036;-91
2021/12/11 01:58:10;;;;;;;39.87;21.27;;;;;;;0.44;85.82;100682.31;4917381;29;20056;-91
2021/12/11 02:00:42;;;;;;;32.35;21.08;;;;;;;0.41;85.57;100689.09;4921566;29;20111;-91
2021/12/11 02:03:11;;;;;;;32.90;19.30;;;;;;;0.39;85.62;100689.06;4922332;29;20024;-91
2021/12/11 02:05:40;;;;;;;58.63;22.17;;;;;;;0.39;85.92;100709.53;4930446;29;20031;-90
2021/12/11 02:08:13;;;;;;;86.97;22.50;;;;;;;0.35;85.74;100724.81;4921594;29;20024;-90
2021/12/11 02:10:46;;;;;;;42.87;22.07;;;;;;;0.36;86.74;100726.53;4923069;29;20106;-90
2021/12/11 02:13:20;;;;;;;38.30;23.67;;;;;;;0.32;86.63;100728.22;4915341;29;20040;-90
2021/12/11 02:15:50;;;;;;;43.90;24.47;;;;;;;0.37;86.94;100736.78;4928325;29;20028;-92
2021/12/11 02:18:34;;;;;;;41.70;24.93;;;;;;;0.40;87.49;100736.84;4903815;29;20376;-90
2021/12/11 02:21:07;;;;;;;43.03;26.03;;;;;;;0.45;87.87;100745.44;4904002;29;20035;-91
2021/12/11 02:23:33;;;;;;;45.43;26.13;;;;;;;0.51;87.81;100743.81;4917346;29;20443;-90
2021/12/11 02:26:15;;;;;;;45.77;26.50;;;;;;;0.56;88.25;100742.16;4916616;29;20111;-91
2021/12/11 02:29:03;;;;;;;43.07;26.00;;;;;;;0.57;87.91;100744.78;4917981;29;20028;-90
2021/12/11 02:31:37;;;;;;;40.80;23.40;;;;;;;0.50;86.81;100752.34;4923024;29;20027;-90
2021/12/11 02:34:15;;;;;;;37.50;23.27;;;;;;;0.43;85.88;100759.03;4922733;29;20074;-90
2021/12/11 02:37:03;;;;;;;39.97;23.87;;;;;;;0.42;85.53;100768.44;4923664;29;20489;-91
2021/12/11 02:39:46;;;;;;;37.47;23.10;;;;;;;0.39;85.69;100776.06;4930663;29;20058;-91
2021/12/11 02:42:31;;;;;;;40.87;23.57;;;;;;;0.37;85.54;100772.63;4924920;29;20536;-92
2021/12/11 02:45:03;;;;;;;41.07;22.70;;;;;;;0.34;85.11;100781.94;4900893;29;20096;-91
2021/12/11 02:47:37;;;;;;;47.87;26.10;;;;;;;0.27;83.92;100781.00;4920812;29;20031;-92
2021/12/11 02:50:41;;;;;;;39.30;24.27;;;;;;;0.33;84.45;100788.78;4907997;29;20032;-91
2021/12/11 02:53:21;;;;;;;109.47;23.70;;;;;;;0.30;84.52;100787.03;4921737;29;20071;-91
2021/12/11 02:55:53;;;;;;;93.23;23.10;;;;;;;0.25;84.94;100792.91;4926183;29;20023;-91
2021/12/11 02:58:22;;;;;;;70.43;22.67;;;;;;;0.24;85.29;100796.31;4924112;29;20048;-91
2021/12/11 03:01:00;;;;;;;47.63;24.00;;;;;;;0.24;85.52;100798.84;4902918;29;20119;-91
2021/12/11 03:03:33;;;;;;;93.07;25.47;;;;;;;0.24;85.79;100797.19;4917278;29;20500;-91
2021/12/11 03:06:06;;;;;;;93.03;25.77;;;;;;;0.26;86.19;100804.88;4932869;29;20389;-91
2021/12/11 03:08:32;;;;;;;145.33;28.13;;;;;;;0.27;86.04;100806.59;4924420;29;20028;-91
2021/12/11 03:11:02;;;;;;;165.47;30.27;;;;;;;0.26;86.00;100815.09;4933969;29;20040;-91
2021/12/11 03:13:29;;;;;;;69.80;29.50;;;;;;;0.26;85.70;100820.22;4924201;29;20059;-92
2021/12/11 03:15:55;;;;;;;101.17;27.77;;;;;;;0.25;85.93;100818.50;4906791;29;20027;-91
2021/12/11 03:18:21;;;;;;;80.80;27.97;;;;;;;0.26;86.03;100828.75;4919594;29;20095;-91
2021/12/11 03:20:49;;;;;;;117.07;27.50;;;;;;;0.23;85.81;100827.84;4923277;29;20043;-91
2021/12/11 03:23:14;;;;;;;93.47;26.67;;;;;;;0.23;85.76;100830.41;4924516;29;20442;-91
2021/12/11 03:25:40;;;;;;;77.80;27.47;;;;;;;0.21;85.90;100838.06;4936107;29;20087;-91
2021/12/11 03:28:09;;;;;;;138.13;29.27;;;;;;;0.21;86.19;100837.19;4926811;29;20031;-90
2021/12/11 03:30:38;;;;;;;98.07;28.07;;;;;;;0.24;86.10;100844.91;4923515;29;20036;-91
2021/12/11 03:33:08;;;;;;;100.97;27.87;;;;;;;0.24;86.22;100847.47;4919877;29;20047;-91
2021/12/11 03:35:33;;;;;;;94.13;28.20;;;;;;;0.22;86.57;100844.03;4900936;29;20397;-91
2021/12/11 03:37:59;;;;;;;121.93;29.00;;;;;;;0.25;86.40;100851.75;4926103;29;20111;-91
2021/12/11 03:40:25;;;;;;;107.70;29.07;;;;;;;0.24;86.19;100852.59;4924839;29;20024;-91
2021/12/11 03:42:53;;;;;;;108.70;26.73;;;;;;;0.21;86.69;100849.97;4918249;29;20035;-92
2021/12/11 03:45:29;;;;;;;77.80;26.27;;;;;;;0.25;87.09;100854.31;4935344;29;20034;-91
2021/12/11 03:48:01;;;;;;;67.80;25.13;;;;;;;0.29;87.46;100859.50;4924219;29;20035;-91
2021/12/11 03:50:29;;;;;;;59.92;25.05;;;;;;;0.33;86.75;100862.13;4928124;29;20027;-91
2021/12/11 03:52:55;;;;;;;58.43;26.60;;;;;;;0.32;87.23;100861.28;4904495;29;20098;-91
2021/12/11 03:55:26;;;;;;;71.57;26.83;;;;;;;0.30;86.43;100868.91;4931814;29;20025;-92
2021/12/11 03:57:57;;;;;;;65.73;25.53;;;;;;;0.30;86.29;100868.06;4927121;29;20034;-91
2021/12/11 04:00:27;;;;;;;43.67;24.90;;;;;;;0.29;86.43;100868.88;4925916;29;20374;-91
2021/12/11 04:03:00;;;;;;;48.83;26.17;;;;;;;0.28;86.68;100869.72;4910827;29;20031;-92
2021/12/11 04:05:25;;;;;;;40.00;23.90;;;;;;;0.26;86.23;100874.78;4926839;29;20780;-92
2021/12/11 04:07:51;;;;;;;72.47;26.63;;;;;;;0.26;86.37;100871.38;4925862;29;20100;-92
2021/12/11 04:10:18;;;;;;;49.23;27.00;;;;;;;0.28;86.46;100875.69;4926589;29;20031;-92
2021/12/11 04:12:44;;;;;;;88.33;26.40;;;;;;;0.23;86.43;100876.44;4920769;29;20106;-91
2021/12/11 04:15:11;;;;;;;67.10;27.10;;;;;;;0.29;86.81;100881.69;4926634;29;20167;-91
2021/12/11 04:17:37;;;;;;;74.27;27.53;;;;;;;0.28;86.32;100885.06;4929068;29;20028;-91
2021/12/11 04:20:12;;;;;;;69.40;26.67;;;;;;;0.30;86.37;100883.41;4932174;29;20075;-91
2021/12/11 04:22:37;;;;;;;72.13;25.57;;;;;;;0.27;86.35;100885.91;4931618;29;20034;-91
2021/12/11 04:25:05;;;;;;;78.73;28.33;;;;;;;0.26;86.53;100891.84;4932236;29;20036;-92
2021/12/11 04:27:30;;;;;;;77.03;27.87;;;;;;;0.28;86.69;100890.19;4928089;29;20028;-91
2021/12/11 04:29:56;;;;;;;67.10;28.10;;;;;;;0.30;87.37;100909.84;4926995;29;20505;-92
2021/12/11 04:32:25;;;;;;;45.90;25.97;;;;;;;0.33;87.04;100909.06;4918745;29;20028;-92
2021/12/11 04:34:50;;;;;;;65.70;27.73;;;;;;;0.35;87.52;100916.75;4905766;29;20034;-92
2021/12/11 04:37:21;;;;;;;51.67;26.67;;;;;;;0.38;87.27;100916.81;4922828;29;20122;-91
2021/12/11 04:39:53;;;;;;;43.53;25.95;;;;;;;0.34;87.07;100909.91;4924086;29;20035;-92
2021/12/11 04:45:07;;;;;;;45.73;26.63;;;;;;;0.47;87.19;100921.22;4935194;29;20099;-92
2021/12/11 04:47:40;;;;;;;48.13;27.67;;;;;;;0.49;87.29;100924.69;4933978;29;20015;-92
2021/12/11 04:50:17;;;;;;;47.80;28.73;;;;;;;0.47;87.54;100924.63;4918551;29;20122;-92
2021/12/11 04:52:55;;;;;;;47.77;27.87;;;;;;;0.51;87.56;100928.13;4926973;29;20060;-91
2021/12/11 05:11:42;;;;;;;51.80;28.90;;;;;;;0.66;87.79;100948.88;4892756;29;20556;-90
2021/12/11 05:14:12;;;;;;;56.67;29.37;;;;;;;0.66;87.95;100953.97;4886786;29;20033;-91
2021/12/11 05:16:38;;;;;;;62.43;29.27;;;;;;;0.69;87.89;100969.38;4905028;29;20035;-91
2021/12/11 05:19:04;;;;;;;58.13;30.03;;;;;;;0.71;88.51;100962.59;4923427;29;20028;-91
2021/12/11 05:21:29;;;;;;;61.33;28.47;;;;;;;0.72;88.30;100968.59;4921951;29;20111;-90
2021/12/11 05:23:55;;;;;;;59.57;28.80;;;;;;;0.73;88.07;100960.91;4927539;29;20045;-91
2021/12/11 05:26:21;;;;;;;53.97;28.20;;;;;;;0.77;88.23;100973.78;4923785;29;20055;-92
2021/12/11 05:28:49;;;;;;;55.33;28.20;;;;;;;0.76;88.22;100983.16;4922816;29;20051;-92
2021/12/11 05:31:15;;;;;;;51.20;28.00;;;;;;;0.78;88.24;100994.28;4911323;29;20392;-92
2021/12/11 05:33:43;;;;;;;56.93;27.63;;;;;;;0.77;88.42;100987.44;4925126;29;20027;-91
2021/12/11 05:36:12;;;;;;;50.83;28.53;;;;;;;0.81;88.40;100993.50;4926581;29;20020;-90
2021/12/11 05:38:39;;;;;;;51.50;26.87;;;;;;;0.81;88.31;100994.34;4922596;29;20047;-92
2021/12/11 05:41:07;;;;;;;56.80;28.77;;;;;;;0.85;88.22;100987.59;4914303;29;20106;-91
2021/12/11 05:43:33;;;;;;;57.00;27.07;;;;;;;0.83;87.98;100996.94;4933396;29;20027;-91
2021/12/11 05:45:58;;;;;;;56.73;28.27;;;;;;;0.83;88.19;100991.81;4923949;29;20389;-92
2021/12/11 05:48:24;;;;;;;50.77;27.33;;;;;;;0.84;88.09;100999.50;4901940;29;20028;-91
2021/12/11 05:50:53;;;;;;;52.90;28.07;;;;;;;0.82;88.17;101010.59;4925295;29;20030;-92
2021/12/11 05:53:20;;;;;;;48.20;27.40;;;;;;;0.86;88.08;101017.44;4917729;29;20182;-93
2021/12/11 05:55:48;;;;;;;47.53;27.40;;;;;;;0.88;88.33;101010.66;4920636;29;20464;-93
2021/12/11 05:58:22;;;;;;;47.47;26.57;;;;;;;0.90;87.97;101009.00;4927796;29;20028;-92
2021/12/11 06:00:49;;;;;;;49.53;27.47;;;;;;;0.94;88.30;101015.06;4930221;29;20099;-92
2021/12/11 06:03:15;;;;;;;48.03;26.40;;;;;;;0.93;88.22;101006.50;4925722;29;20111;-91
2021/12/11 06:05:41;;;;;;;51.60;27.50;;;;;;;0.93;88.61;101015.88;4924468;29;20114;-92
2021/12/11 06:08:08;;;;;;;64.03;28.17;;;;;;;0.93;88.40;101011.63;4922984;29;20079;-92
2021/12/11 06:10:36;;;;;;;55.60;27.63;;;;;;;0.97;88.87;101026.19;4917743;29;20406;-91
2021/12/11 06:13:02;;;;;;;64.03;28.93;;;;;;;0.96;89.11;101021.91;4925408;29;20027;-92
2021/12/11 06:15:28;;;;;;;59.60;28.93;;;;;;;1.00;88.96;101031.38;4907104;29;20048;-92
2021/12/11 06:17:54;;;;;;;66.50;29.10;;;;;;;1.02;89.17;101027.16;4923042;29;20114;-92
2021/12/11 06:20:23;;;;;;;76.63;30.07;;;;;;;0.98;88.55;101025.38;4922973;29;20041;-92
2021/12/11 06:22:48;;;;;;;61.07;28.93;;;;;;;0.98;89.05;101020.25;4930957;29;20027;-92
2021/12/11 06:25:23;;;;;;;58.17;30.70;;;;;;;0.98;89.39;101027.06;4925119;29;20473;-92
2021/12/11 06:27:50;;;;;;;60.13;28.87;;;;;;;0.98;89.37;101043.31;4902312;29;20031;-91
2021/12/11 06:30:15;;;;;;;55.73;29.20;;;;;;;1.00;89.51;101041.63;4921411;29;20035;-91
2021/12/11 06:32:42;;;;;;;57.17;30.63;;;;;;;1.04;89.64;101050.22;4922002;29;20548;-92
2021/12/11 06:35:17;;;;;;;59.27;30.93;;;;;;;1.05;89.87;101050.22;4911187;29;20061;-92
2021/12/11 06:37:42;;;;;;;61.27;30.60;;;;;;;1.06;89.94;101051.97;4919271;29;20066;-91
2021/12/11 06:40:08;;;;;;;62.93;31.53;;;;;;;1.11;89.85;101062.28;4922956;29;20114;-91
2021/12/11 06:42:34;;;;;;;59.53;30.07;;;;;;;1.16;90.14;101068.34;4915601;29;20059;-91
2021/12/11 06:44:59;;;;;;;58.50;29.93;;;;;;;1.18;90.01;101070.97;4927617;29;20059;-92
2021/12/11 06:47:24;;;;;;;61.67;30.93;;;;;;;1.19;90.16;101067.56;4922156;29;20035;-92
2021/12/11 06:49:50;;;;;;;60.87;31.23;;;;;;;1.18;90.18;101073.53;4921991;29;20024;-92
2021/12/11 06:52:20;;;;;;;61.07;30.57;;;;;;;1.16;90.04;101070.06;4923106;29;20036;-92
2021/12/11 06:54:46;;;;;;;63.67;31.70;;;;;;;1.18;89.91;101070.97;4927012;29;20059;-91
2021/12/11 06:57:12;;;;;;;61.20;31.17;;;;;;;1.23;90.22;101076.16;4923135;29;20492;-92
2021/12/11 06:59:37;;;;;;;63.43;31.80;;;;;;;1.23;90.25;101079.56;4929292;29;20488;-92
2021/12/11 07:02:02;;;;;;;61.67;32.93;;;;;;;1.25;90.54;101083.03;4931013;29;20548;-92
2021/12/11 07:04:28;;;;;;;63.27;33.23;;;;;;;1.28;90.57;101083.06;4924082;29;20035;-91
2021/12/11 07:06:54;;;;;;;64.67;35.07;;;;;;;1.32;90.80;101090.00;4926843;29;20102;-92
2021/12/11 07:09:22;;;;;;;64.30;34.03;;;;;;;1.34;90.74;101096.00;4921313;29;20138;-92
2021/12/11 07:11:48;;;;;;;63.53;33.30;;;;;;;1.36;91.08;101101.16;4933257;29;20116;-93
2021/12/11 07:14:16;;;;;;;60.83;32.43;;;;;;;1.36;90.96;101099.47;4931364;29;20031;-96
2021/12/11 07:16:42;;;;;;;61.87;32.47;;;;;;;1.38;91.16;101101.16;4943264;28;20043;-95
2021/12/11 07:19:08;;;;;;;62.63;33.00;;;;;;;1.43;91.14;101107.22;4938021;29;20098;-95
2021/12/11 07:21:33;;;;;;;61.63;33.10;;;;;;;1.44;91.26;101104.72;4949419;29;20011;-96
2021/12/11 07:24:00;;;;;;;63.83;34.40;;;;;;;1.46;91.39;101107.28;4936983;29;20784;-95
2021/12/11 07:26:32;;;;;;;60.13;33.20;;;;;;;1.46;91.48;101107.28;4937819;29;20063;-93
2021/12/11 07:29:02;;;;;;;63.37;33.80;;;;;;;1.42;91.70;101093.56;4936878;28;20052;-93
2021/12/11 07:37:35;;;;;;;63.53;34.10;;;;;;;1.50;91.77;101101.38;4900783;29;20036;-91
2021/12/11 07:40:04;;;;;;;65.77;34.97;;;;;;;1.60;91.90;101110.09;5012649;23;20279;-93
2021/12/11 07:42:52;;;;;;;67.63;35.97;;;;;;;1.62;92.21;101113.53;4942365;29;20087;-94
2021/12/11 07:46:01;;;;;;;70.27;35.43;;;;;;;1.62;92.05;101109.25;4891007;29;20041;-92
2021/12/11 07:48:27;;;;;;;63.47;34.60;;;;;;;1.65;92.24;101117.00;4888599;29;20045;-93
2021/12/11 08:02:48;;;;;;;67.80;35.70;;;;;;;1.89;92.58;101138.72;5472377;23;20058;-96
2021/12/11 08:05:32;;;;;;;67.13;35.80;;;;;;;1.93;92.75;101140.50;4962411;28;20043;-95
2021/12/11 08:08:03;;;;;;;66.20;34.37;;;;;;;1.90;92.79;101143.00;4957021;28;20498;-94
2021/12/11 08:10:33;;;;;;;66.53;34.73;;;;;;;1.94;92.83;101141.38;4953999;28;20066;-93
2021/12/11 08:13:00;;;;;;;65.73;35.43;;;;;;;1.95;92.77;101154.22;4948840;28;20432;-93
2021/12/11 08:15:41;;;;;;;63.10;35.50;;;;;;;2.00;92.97;101150.84;4950014;28;20091;-93
2021/12/11 08:18:14;;;;;;;60.40;33.60;;;;;;;2.03;92.84;101166.31;5015268;23;20065;-94
2021/12/11 08:21:09;;;;;;;;;;;;;;;;;;;;;
2021/12/11 08:23:42;;;;;;;60.17;31.90;;;;;;;2.05;92.91;101180.03;4951146;28;20043;-94
2021/12/11 08:26:08;;;;;;;56.80;29.90;;;;;;;2.10;93.23;101178.38;4943662;28;20036;-96
2021/12/11 08:28:33;;;;;;;54.80;30.80;;;;;;;2.20;93.29;101185.38;4950876;28;20145;-93
2021/12/11 08:33:36;;;;;;;47.80;27.23;;;;;;;2.34;93.26;101203.53;5161277;23;20054;-93
2021/12/11 08:36:03;;;;;;;44.57;25.20;;;;;;;2.33;93.70;101193.25;5010048;23;20098;-94
2021/12/11 08:38:30;;;;;;;45.97;24.27;;;;;;;2.49;93.60;101218.28;4963772;28;20026;-91
2021/12/11 08:41:30;;;;;;;;;;;;;;;;;;;;;
2021/12/11 08:44:00;;;;;;;38.03;20.50;;;;;;;2.50;93.61;101204.63;4967490;28;20034;-93
2021/12/11 08:46:28;;;;;;;37.57;19.73;;;;;;;2.57;93.34;101214.09;4950830;28;20031;-92
2021/12/11 08:48:57;;;;;;;34.13;17.47;;;;;;;2.70;93.46;101233.13;4964866;28;20035;-93
2021/12/11 08:51:32;;;;;;;29.63;15.10;;;;;;;2.67;93.08;101220.22;4967031;28;20023;-94
2021/12/11 08:54:26;;;;;;;;;;;;;;;;;;;;;
2021/12/11 08:59:30;;;;;;;29.37;13.27;;;;;;;2.96;93.09;101240.31;5214162;23;20062;-95
2021/12/11 09:02:11;;;;;;;25.63;12.77;;;;;;;3.07;92.75;101257.56;4987953;28;20136;-95
2021/12/11 09:04:45;;;;;;;24.60;12.77;;;;;;;3.12;92.78;101259.34;4985872;28;20045;-91
2021/12/11 09:07:17;;;;;;;24.83;12.40;;;;;;;3.10;92.79;101258.44;4967620;28;20041;-92
2021/12/11 09:09:48;;;;;;;26.70;12.20;;;;;;;3.25;92.75;101270.63;4969868;28;20494;-92
2021/12/11 09:12:38;;;;;;;27.45;12.45;;;;;;;3.22;92.74;101267.16;4987899;28;20031;-92
2021/12/11 09:15:09;;;;;;;27.13;11.57;;;;;;;3.36;92.16;101290.44;4970225;28;20040;-90
2021/12/11 09:17:58;;;;;;;22.88;11.10;;;;;;;3.41;92.26;101288.81;4967446;28;20525;-87
2021/12/11 09:20:34;;;;;;;23.67;11.87;;;;;;;3.45;92.53;101299.13;4967705;28;20109;-86
2021/12/11 09:23:13;;;;;;;24.23;13.67;;;;;;;3.53;92.04;101288.09;4970143;28;20539;-89
2021/12/11 09:25:53;;;;;;;30.37;15.33;;;;;;;3.59;91.81;101298.41;4968560;28;20027;-90
2021/12/11 09:28:37;;;;;;;27.77;15.87;;;;;;;3.68;91.69;101307.94;4967691;28;20022;-88
2021/12/11 09:31:18;;;;;;;28.30;18.50;;;;;;;3.72;90.76;101323.44;4967817;28;20035;-92
2021/12/11 09:33:56;;;;;;;33.30;20.70;;;;;;;3.69;90.70;101330.25;4947935;28;20038;-88
2021/12/11 09:36:30;;;;;;;34.87;20.23;;;;;;;3.70;90.04;101326.84;4966865;28;20061;-88
2021/12/11 09:39:04;;;;;;;34.33;21.50;;;;;;;3.73;89.76;101348.34;4948480;28;20046;-89
2021/12/11 09:41:30;;;;;;;35.13;22.00;;;;;;;3.76;89.90;101347.50;4949391;28;20042;-87
2021/12/11 09:43:59;;;;;;;33.83;21.33;;;;;;;3.76;89.84;101345.78;4965931;28;20038;-89
2021/12/11 09:46:34;;;;;;;38.20;22.10;;;;;;;3.74;90.12;101350.06;4968587;28;20117;-90
2021/12/11 09:49:02;;;;;;;36.03;21.70;;;;;;;3.73;89.85;101348.34;4969349;28;20039;-89
2021/12/11 09:51:34;;;;;;;39.80;22.07;;;;;;;3.83;90.24;101366.44;4966358;28;20039;-90
2021/12/11 09:54:04;;;;;;;37.57;23.43;;;;;;;3.82;90.11;101367.28;4967095;28;20038;-89
2021/12/11 09:56:38;;;;;;;42.30;23.20;;;;;;;3.85;89.87;101385.34;4946519;28;20027;-88
2021/12/11 09:59:09;;;;;;;36.77;22.40;;;;;;;3.84;89.17;101388.75;4964141;28;20560;-89
2021/12/11 10:01:40;;;;;;;35.63;22.88;;;;;;;3.76;90.06;101379.22;4966521;28;20037;-88
2021/12/11 10:04:17;;;;;;;39.40;24.33;;;;;;;3.83;89.65;101389.59;4965950;28;20030;-89
2021/12/11 10:08:01;;;;;;;34.63;22.90;;;;;;;3.83;89.06;101390.47;4948499;28;20511;-90
2021/12/11 10:09:46;;;;;;;36.87;23.27;;;;;;;3.82;89.52;101395.59;4953053;28;20049;-90
2021/12/11 10:12:19;;;;;;;40.40;24.93;;;;;;;3.85;90.01;101393.06;4966513;28;20034;-88
2021/12/11 10:15:09;;;;;;;40.07;24.10;;;;;;;3.87;90.12;101397.38;4964986;28;20062;-90
2021/12/11 10:17:40;;;;;;;45.33;26.40;;;;;;;3.88;90.39;101405.97;4965812;28;20038;-88
2021/12/11 10:20:18;;;;;;;44.60;26.38;;;;;;;3.88;90.25;101411.13;4951401;28;20039;-90
2021/12/11 10:22:44;;;;;;;41.83;26.57;;;;;;;3.85;89.94;101406.78;4969548;28;20050;-88
2021/12/11 10:25:16;;;;;;;51.80;28.57;;;;;;;3.85;90.08;101423.94;4969389;28;20035;-88
2021/12/11 10:27:42;;;;;;;44.97;27.73;;;;;;;3.88;90.12;101418.84;4969154;28;20045;-88
2021/12/11 10:30:13;;;;;;;45.73;27.87;;;;;;;3.96;89.82;101437.78;4968780;28;20484;-88
2021/12/11 10:32:38;;;;;;;47.50;27.57;;;;;;;3.97;90.16;101434.38;4969415;28;20078;-91
2021/12/11 10:35:12;;;;;;;50.27;28.67;;;;;;;3.95;90.09;101436.94;4967744;28;20822;-90
2021/12/11 10:37:38;;;;;;;48.80;28.83;;;;;;;3.94;90.23;101431.75;4967874;28;20031;-89
2021/12/11 10:40:07;;;;;;;51.50;28.90;;;;;;;3.95;90.17;101430.91;4969974;28;20034;-88
2021/12/11 10:42:33;;;;;;;47.63;28.33;;;;;;;3.99;90.30;101440.41;4968788;28;20502;-91
2021/12/11 10:44:59;;;;;;;46.70;28.73;;;;;;;3.97;90.43;101428.38;4967634;28;20118;-89
2021/12/11 10:47:38;;;;;;;45.03;28.07;;;;;;;4.06;90.52;101444.78;4951338;28;20379;-89
2021/12/11 10:50:10;;;;;;;44.23;27.40;;;;;;;4.12;90.26;101448.25;4950787;28;20037;-91
2021/12/11 10:52:36;;;;;;;44.90;26.05;;;;;;;4.14;89.51;101449.16;4968442;28;20049;-91
2021/12/11 10:55:08;;;;;;;43.20;25.30;;;;;;;4.16;89.59;101444.88;4951167;28;20034;-88
2021/12/11 10:57:33;;;;;;;44.63;25.00;;;;;;;4.21;89.19;101453.53;4968212;28;20038;-88
2021/12/11 11:00:00;;;;;;;38.37;24.23;;;;;;;4.26;88.86;101464.75;4969044;28;21356;-88
2021/12/11 11:02:30;;;;;;;34.00;22.40;;;;;;;4.26;87.79;101475.06;4969254;28;20052;-87
2021/12/11 11:05:11;;;;;;;39.57;24.30;;;;;;;4.24;88.72;101471.59;4968471;28;20183;-87
2021/12/11 11:07:37;;;;;;;40.53;25.58;;;;;;;4.24;88.27;101479.31;4969271;28;20031;-89
2021/12/11 11:10:07;;;;;;;42.83;26.33;;;;;;;4.28;88.45;101491.34;4969384;28;20054;-88
2021/12/11 11:12:32;;;;;;;40.70;26.53;;;;;;;4.33;88.79;101484.56;4969707;28;20060;-88
2021/12/11 11:14:58;;;;;;;43.03;26.73;;;;;;;4.37;88.26;101490.59;4969312;28;20130;-88
2021/12/11 11:17:30;;;;;;;44.33;27.23;;;;;;;4.38;87.84;101497.47;4951449;28;20033;-85
2021/12/11 11:19:58;;;;;;;44.07;28.13;;;;;;;4.33;88.07;101500.00;4968196;28;20639;-91
2021/12/11 11:22:33;;;;;;;49.57;29.30;;;;;;;4.29;87.81;101498.25;4968901;28;20553;-91
2021/12/11 11:25:05;;;;;;;44.53;29.73;;;;;;;4.40;88.47;101500.94;4969199;28;20038;-90
2021/12/11 11:27:31;;;;;;;48.27;30.03;;;;;;;4.52;88.78;101515.66;4968894;28;20038;-89
2021/12/11 11:29:56;;;;;;;47.70;29.93;;;;;;;4.59;88.62;101512.31;4967248;28;20027;-88
2021/12/11 11:32:31;;;;;;;49.30;29.07;;;;;;;4.63;88.40;101521.78;4968191;28;20038;-88
2021/12/11 11:35:06;;;;;;;48.57;27.70;;;;;;;4.66;87.91;101520.97;4966771;28;20325;-88
2021/12/11 11:37:35;;;;;;;42.83;25.07;;;;;;;4.67;87.57;101530.44;4967765;28;20031;-88
2021/12/11 11:40:04;;;;;;;41.87;26.00;;;;;;;4.66;87.15;101533.84;4968609;28;20411;-88
2021/12/11 11:42:29;;;;;;;41.23;26.10;;;;;;;4.62;87.38;101537.25;4969371;28;20130;-89
2021/12/11 11:44:55;;;;;;;40.70;26.10;;;;;;;4.55;87.30;101533.75;4969568;28;20106;-90
2021/12/11 11:47:20;;;;;;;39.00;23.30;;;;;;;4.57;87.46;101524.31;4967591;28;20034;-90
2021/12/11 11:49:56;;;;;;;39.60;24.67;;;;;;;4.60;87.57;101516.63;4967671;28;20113;-88
2021/12/11 11:52:22;;;;;;;34.57;21.33;;;;;;;4.71;87.17;101533.03;4950877;28;20027;-88
2021/12/11 11:54:53;;;;;;;37.73;23.57;;;;;;;4.74;86.96;101533.94;4950133;28;20086;-88
2021/12/11 11:57:23;;;;;;;34.23;21.97;;;;;;;4.84;87.52;101548.63;4967269;28;20104;-88
2021/12/11 11:59:51;;;;;;;35.60;22.37;;;;;;;4.93;87.39;101558.16;4966963;28;20126;-86
2021/12/11 12:02:20;;;;;;;33.88;20.35;;;;;;;4.97;87.13;101558.19;4968165;28;20030;-87
2021/12/11 12:04:48;;;;;;;29.90;19.40;;;;;;;5.07;86.65;101545.41;4966938;28;20042;-88
2021/12/11 12:07:15;;;;;;;29.55;19.17;;;;;;;5.18;85.95;101554.06;4968440;28;20035;-85
2021/12/11 12:09:43;;;;;;;27.02;17.48;;;;;;;5.22;85.64;101554.94;4967570;28;20482;-87
2021/12/11 12:12:12;;;;;;;29.48;18.60;;;;;;;5.31;86.33;101561.06;4967367;28;20031;-87
2021/12/11 12:14:39;;;;;;;30.20;17.80;;;;;;;5.39;85.82;101568.84;4968215;28;20057;-88
2021/12/11 12:17:07;;;;;;;26.77;16.10;;;;;;;5.47;85.56;101567.19;4966210;28;20035;-88
2021/12/11 12:19:32;;;;;;;22.45;15.35;;;;;;;5.53;85.28;101561.22;4966872;28;20033;-87
2021/12/11 12:22:03;;;;;;;26.23;15.93;;;;;;;5.60;85.46;101568.16;4968293;28;20413;-88